sensor_id;sensor_type;location;lat;lon;timestamp;P1;durP1;ratioP1;P2;durP2;ratioP2
51824;SDS011;37879;52.986;6.282;2022-10-16T00:00:31;4.30;;;1.60;;
51824;SDS011;37879;52.986;6.282;2022-10-16T00:02:57;3.78;;;1.48;;
51824;SDS011;37879;52.986;6.282;2022-10-16T00:05:23;6.65;;;1.40;;
51824;SDS011;37879;52.986;6.282;2022-10-16T00:07:49;11.63;;;1.77;;
51824;SDS011;37879;52.986;6.282;2022-10-16T00:10:14;5.00;;;1.42;;
51824;SDS011;37879;52.986;6.282;2022-10-16T00:12:40;4.07;;;1.40;;
51824;SDS011;37879;52.986;6.282;2022-10-16T00:15:06;4.55;;;1.58;;
51824;SDS011;37879;52.986;6.282;2022-10-16T00:17:32;2.63;;;1.25;;
51824;SDS011;37879;52.986;6.282;2022-10-16T00:19:58;4.30;;;1.10;;
51824;SDS011;37879;52.986;6.282;2022-10-16T00:22:24;4.25;;;1.55;;
51824;SDS011;37879;52.986;6.282;2022-10-16T00:24:49;3.45;;;1.58;;
51824;SDS011;37879;52.986;6.282;2022-10-16T00:27:15;4.63;;;1.17;;
51824;SDS011;37879;52.986;6.282;2022-10-16T00:29:41;4.53;;;1.27;;
51824;SDS011;37879;52.986;6.282;2022-10-16T00:32:07;5.70;;;1.38;;
51824;SDS011;37879;52.986;6.282;2022-10-16T00:34:33;3.92;;;1.33;;
51824;SDS011;37879;52.986;6.282;2022-10-16T00:36:59;6.38;;;1.33;;
51824;SDS011;37879;52.986;6.282;2022-10-16T00:39:24;6.40;;;1.35;;
51824;SDS011;37879;52.986;6.282;2022-10-16T00:41:50;5.72;;;1.95;;
51824;SDS011;37879;52.986;6.282;2022-10-16T00:47:31;7.30;;;1.25;;
51824;SDS011;37879;52.986;6.282;2022-10-16T00:50:18;4.70;;;1.48;;
51824;SDS011;37879;52.986;6.282;2022-10-16T00:53:03;3.10;;;1.03;;
51824;SDS011;37879;52.986;6.282;2022-10-16T00:55:29;6.00;;;1.40;;
51824;SDS011;37879;52.986;6.282;2022-10-16T00:57:56;5.75;;;1.67;;
51824;SDS011;37879;52.986;6.282;2022-10-16T01:00:24;6.55;;;1.45;;
51824;SDS011;37879;52.986;6.282;2022-10-16T01:02:52;4.85;;;1.30;;
51824;SDS011;37879;52.986;6.282;2022-10-16T01:05:19;6.43;;;1.83;;
51824;SDS011;37879;52.986;6.282;2022-10-16T01:10:34;3.75;;;1.50;;
51824;SDS011;37879;52.986;6.282;2022-10-16T01:18:18;4.38;;;1.60;;
51824;SDS011;37879;52.986;6.282;2022-10-16T01:20:45;3.63;;;1.35;;
51824;SDS011;37879;52.986;6.282;2022-10-16T01:26:08;5.00;;;1.30;;
51824;SDS011;37879;52.986;6.282;2022-10-16T01:28:57;3.78;;;1.30;;
51824;SDS011;37879;52.986;6.282;2022-10-16T01:31:47;5.47;;;1.73;;
51824;SDS011;37879;52.986;6.282;2022-10-16T01:34:20;4.38;;;1.63;;
51824;SDS011;37879;52.986;6.282;2022-10-16T01:36:54;5.32;;;1.35;;
51824;SDS011;37879;52.986;6.282;2022-10-16T01:39:25;3.40;;;1.63;;
51824;SDS011;37879;52.986;6.282;2022-10-16T01:41:58;3.45;;;1.10;;
51824;SDS011;37879;52.986;6.282;2022-10-16T01:44:31;3.95;;;1.38;;
51824;SDS011;37879;52.986;6.282;2022-10-16T01:46:59;3.20;;;1.27;;
51824;SDS011;37879;52.986;6.282;2022-10-16T01:49:25;3.65;;;1.35;;
51824;SDS011;37879;52.986;6.282;2022-10-16T01:51:55;5.57;;;1.60;;
51824;SDS011;37879;52.986;6.282;2022-10-16T01:54:25;8.68;;;1.52;;
51824;SDS011;37879;52.986;6.282;2022-10-16T01:56:53;4.38;;;1.05;;
51824;SDS011;37879;52.986;6.282;2022-10-16T01:59:21;1.92;;;1.05;;
51824;SDS011;37879;52.986;6.282;2022-10-16T02:01:50;3.22;;;1.10;;
51824;SDS011;37879;52.986;6.282;2022-10-16T02:06:58;4.45;;;1.08;;
51824;SDS011;37879;52.986;6.282;2022-10-16T02:09:24;2.85;;;1.10;;
51824;SDS011;37879;52.986;6.282;2022-10-16T02:11:51;5.90;;;1.40;;
51824;SDS011;37879;52.986;6.282;2022-10-16T02:14:20;3.65;;;1.27;;
51824;SDS011;37879;52.986;6.282;2022-10-16T02:16:49;5.07;;;1.10;;
51824;SDS011;37879;52.986;6.282;2022-10-16T02:19:15;4.70;;;1.52;;
51824;SDS011;37879;52.986;6.282;2022-10-16T02:21:54;2.78;;;1.13;;
51824;SDS011;37879;52.986;6.282;2022-10-16T02:24:44;3.83;;;1.13;;
51824;SDS011;37879;52.986;6.282;2022-10-16T02:32:37;1.58;;;0.98;;
51824;SDS011;37879;52.986;6.282;2022-10-16T02:35:06;3.50;;;1.30;;
51824;SDS011;37879;52.986;6.282;2022-10-16T02:37:33;3.88;;;1.30;;
51824;SDS011;37879;52.986;6.282;2022-10-16T02:39:59;1.77;;;0.95;;
51824;SDS011;37879;52.986;6.282;2022-10-16T02:42:33;2.72;;;1.35;;
51824;SDS011;37879;52.986;6.282;2022-10-16T02:45:04;5.07;;;1.40;;
51824;SDS011;37879;52.986;6.282;2022-10-16T02:47:31;3.80;;;1.00;;
51824;SDS011;37879;52.986;6.282;2022-10-16T02:49:56;2.92;;;1.20;;
51824;SDS011;37879;52.986;6.282;2022-10-16T02:52:22;2.35;;;0.80;;
51824;SDS011;37879;52.986;6.282;2022-10-16T02:54:48;3.60;;;1.33;;
51824;SDS011;37879;52.986;6.282;2022-10-16T02:57:14;2.80;;;1.00;;
51824;SDS011;37879;52.986;6.282;2022-10-16T02:59:39;3.13;;;1.13;;
51824;SDS011;37879;52.986;6.282;2022-10-16T03:02:05;5.85;;;1.10;;
51824;SDS011;37879;52.986;6.282;2022-10-16T03:04:31;2.50;;;1.30;;
51824;SDS011;37879;52.986;6.282;2022-10-16T03:06:56;2.38;;;1.15;;
51824;SDS011;37879;52.986;6.282;2022-10-16T03:09:22;2.47;;;1.20;;
51824;SDS011;37879;52.986;6.282;2022-10-16T03:11:47;4.68;;;1.60;;
51824;SDS011;37879;52.986;6.282;2022-10-16T03:14:13;4.53;;;1.10;;
51824;SDS011;37879;52.986;6.282;2022-10-16T03:16:39;2.33;;;1.10;;
51824;SDS011;37879;52.986;6.282;2022-10-16T03:19:04;4.88;;;1.15;;
51824;SDS011;37879;52.986;6.282;2022-10-16T03:21:30;5.10;;;1.15;;
51824;SDS011;37879;52.986;6.282;2022-10-16T03:23:56;4.55;;;1.10;;
51824;SDS011;37879;52.986;6.282;2022-10-16T03:26:21;5.28;;;1.27;;
51824;SDS011;37879;52.986;6.282;2022-10-16T03:28:47;4.53;;;1.20;;
51824;SDS011;37879;52.986;6.282;2022-10-16T03:31:13;3.28;;;1.30;;
51824;SDS011;37879;52.986;6.282;2022-10-16T03:33:39;2.08;;;1.05;;
51824;SDS011;37879;52.986;6.282;2022-10-16T03:36:04;2.45;;;1.15;;
51824;SDS011;37879;52.986;6.282;2022-10-16T03:38:30;4.35;;;1.73;;
51824;SDS011;37879;52.986;6.282;2022-10-16T03:40:56;5.05;;;1.60;;
51824;SDS011;37879;52.986;6.282;2022-10-16T03:43:21;5.13;;;1.23;;
51824;SDS011;37879;52.986;6.282;2022-10-16T03:45:47;3.78;;;1.42;;
51824;SDS011;37879;52.986;6.282;2022-10-16T03:48:14;2.10;;;1.58;;
51824;SDS011;37879;52.986;6.282;2022-10-16T03:50:40;5.18;;;1.10;;
51824;SDS011;37879;52.986;6.282;2022-10-16T03:53:06;4.60;;;1.23;;
51824;SDS011;37879;52.986;6.282;2022-10-16T03:55:31;3.30;;;1.10;;
51824;SDS011;37879;52.986;6.282;2022-10-16T03:57:57;6.97;;;1.67;;
51824;SDS011;37879;52.986;6.282;2022-10-16T04:00:23;2.65;;;1.40;;
51824;SDS011;37879;52.986;6.282;2022-10-16T04:02:48;4.15;;;1.50;;
51824;SDS011;37879;52.986;6.282;2022-10-16T04:05:14;4.07;;;1.13;;
51824;SDS011;37879;52.986;6.282;2022-10-16T04:07:40;4.32;;;1.27;;
51824;SDS011;37879;52.986;6.282;2022-10-16T04:10:05;3.22;;;1.73;;
51824;SDS011;37879;52.986;6.282;2022-10-16T04:12:31;2.88;;;1.20;;
51824;SDS011;37879;52.986;6.282;2022-10-16T04:14:57;2.40;;;1.17;;
51824;SDS011;37879;52.986;6.282;2022-10-16T04:17:23;5.43;;;1.58;;
51824;SDS011;37879;52.986;6.282;2022-10-16T04:19:48;2.97;;;1.30;;
51824;SDS011;37879;52.986;6.282;2022-10-16T04:22:14;6.90;;;1.27;;
51824;SDS011;37879;52.986;6.282;2022-10-16T04:24:40;4.05;;;1.42;;
51824;SDS011;37879;52.986;6.282;2022-10-16T04:27:05;2.83;;;1.50;;
51824;SDS011;37879;52.986;6.282;2022-10-16T04:29:31;3.00;;;1.42;;
51824;SDS011;37879;52.986;6.282;2022-10-16T04:31:57;3.58;;;1.55;;
51824;SDS011;37879;52.986;6.282;2022-10-16T04:34:22;2.70;;;1.30;;
51824;SDS011;37879;52.986;6.282;2022-10-16T04:36:48;5.53;;;1.55;;
51824;SDS011;37879;52.986;6.282;2022-10-16T04:39:16;2.22;;;1.30;;
51824;SDS011;37879;52.986;6.282;2022-10-16T04:41:42;5.82;;;1.48;;
51824;SDS011;37879;52.986;6.282;2022-10-16T04:44:08;5.07;;;1.73;;
51824;SDS011;37879;52.986;6.282;2022-10-16T04:46:33;5.22;;;1.50;;
51824;SDS011;37879;52.986;6.282;2022-10-16T04:48:59;5.30;;;1.95;;
51824;SDS011;37879;52.986;6.282;2022-10-16T04:51:25;3.85;;;2.03;;
51824;SDS011;37879;52.986;6.282;2022-10-16T04:53:52;4.57;;;1.75;;
51824;SDS011;37879;52.986;6.282;2022-10-16T04:56:18;8.40;;;1.83;;
51824;SDS011;37879;52.986;6.282;2022-10-16T04:58:44;2.75;;;1.40;;
51824;SDS011;37879;52.986;6.282;2022-10-16T05:01:09;3.80;;;1.40;;
51824;SDS011;37879;52.986;6.282;2022-10-16T05:03:35;3.22;;;1.95;;
51824;SDS011;37879;52.986;6.282;2022-10-16T05:06:01;4.32;;;1.60;;
51824;SDS011;37879;52.986;6.282;2022-10-16T05:08:26;4.78;;;2.50;;
51824;SDS011;37879;52.986;6.282;2022-10-16T05:10:52;3.90;;;1.83;;
51824;SDS011;37879;52.986;6.282;2022-10-16T05:13:18;5.47;;;2.00;;
51824;SDS011;37879;52.986;6.282;2022-10-16T05:15:46;2.65;;;1.50;;
51824;SDS011;37879;52.986;6.282;2022-10-16T05:18:13;3.53;;;1.77;;
51824;SDS011;37879;52.986;6.282;2022-10-16T05:20:39;5.10;;;1.90;;
51824;SDS011;37879;52.986;6.282;2022-10-16T05:23:04;7.00;;;1.88;;
51824;SDS011;37879;52.986;6.282;2022-10-16T05:25:30;4.15;;;1.73;;
51824;SDS011;37879;52.986;6.282;2022-10-16T05:27:56;4.03;;;1.58;;
51824;SDS011;37879;52.986;6.282;2022-10-16T05:30:21;4.22;;;1.85;;
51824;SDS011;37879;52.986;6.282;2022-10-16T05:32:48;6.63;;;2.05;;
51824;SDS011;37879;52.986;6.282;2022-10-16T05:35:14;5.30;;;2.08;;
51824;SDS011;37879;52.986;6.282;2022-10-16T05:37:40;5.18;;;2.13;;
51824;SDS011;37879;52.986;6.282;2022-10-16T05:40:07;5.45;;;2.17;;
51824;SDS011;37879;52.986;6.282;2022-10-16T05:42:33;7.97;;;2.35;;
51824;SDS011;37879;52.986;6.282;2022-10-16T05:44:59;4.03;;;2.13;;
51824;SDS011;37879;52.986;6.282;2022-10-16T05:47:24;4.40;;;2.15;;
51824;SDS011;37879;52.986;6.282;2022-10-16T05:49:50;5.40;;;2.00;;
51824;SDS011;37879;52.986;6.282;2022-10-16T05:52:16;3.70;;;1.92;;
51824;SDS011;37879;52.986;6.282;2022-10-16T05:54:42;2.90;;;1.85;;
51824;SDS011;37879;52.986;6.282;2022-10-16T05:57:08;4.45;;;1.92;;
51824;SDS011;37879;52.986;6.282;2022-10-16T05:59:34;4.82;;;2.35;;
51824;SDS011;37879;52.986;6.282;2022-10-16T06:02:00;5.45;;;1.98;;
51824;SDS011;37879;52.986;6.282;2022-10-16T06:04:26;3.90;;;2.20;;
51824;SDS011;37879;52.986;6.282;2022-10-16T06:06:51;3.22;;;1.90;;
51824;SDS011;37879;52.986;6.282;2022-10-16T06:09:17;5.65;;;2.08;;
51824;SDS011;37879;52.986;6.282;2022-10-16T06:11:43;4.85;;;1.98;;
51824;SDS011;37879;52.986;6.282;2022-10-16T06:14:08;5.10;;;2.00;;
51824;SDS011;37879;52.986;6.282;2022-10-16T06:16:35;4.07;;;2.28;;
51824;SDS011;37879;52.986;6.282;2022-10-16T06:19:02;4.72;;;2.17;;
51824;SDS011;37879;52.986;6.282;2022-10-16T06:21:31;6.22;;;2.38;;
51824;SDS011;37879;52.986;6.282;2022-10-16T06:23:57;4.43;;;2.22;;
51824;SDS011;37879;52.986;6.282;2022-10-16T06:26:24;4.15;;;2.88;;
51824;SDS011;37879;52.986;6.282;2022-10-16T06:28:51;7.18;;;2.00;;
51824;SDS011;37879;52.986;6.282;2022-10-16T06:31:20;6.25;;;2.33;;
51824;SDS011;37879;52.986;6.282;2022-10-16T06:33:49;4.43;;;1.75;;
51824;SDS011;37879;52.986;6.282;2022-10-16T06:36:16;3.45;;;1.90;;
51824;SDS011;37879;52.986;6.282;2022-10-16T06:38:42;6.43;;;2.45;;
51824;SDS011;37879;52.986;6.282;2022-10-16T06:41:13;2.90;;;1.70;;
51824;SDS011;37879;52.986;6.282;2022-10-16T06:43:43;5.18;;;2.08;;
51824;SDS011;37879;52.986;6.282;2022-10-16T06:46:13;6.38;;;1.90;;
51824;SDS011;37879;52.986;6.282;2022-10-16T06:48:40;5.47;;;2.20;;
51824;SDS011;37879;52.986;6.282;2022-10-16T06:51:08;5.82;;;1.90;;
51824;SDS011;37879;52.986;6.282;2022-10-16T06:53:37;5.22;;;2.50;;
51824;SDS011;37879;52.986;6.282;2022-10-16T06:56:08;4.65;;;2.05;;
51824;SDS011;37879;52.986;6.282;2022-10-16T06:58:35;5.13;;;1.98;;
51824;SDS011;37879;52.986;6.282;2022-10-16T07:01:01;4.53;;;2.03;;
51824;SDS011;37879;52.986;6.282;2022-10-16T07:03:26;4.57;;;1.67;;
51824;SDS011;37879;52.986;6.282;2022-10-16T07:05:52;4.97;;;1.70;;
51824;SDS011;37879;52.986;6.282;2022-10-16T07:08:18;4.25;;;1.58;;
51824;SDS011;37879;52.986;6.282;2022-10-16T07:10:46;3.20;;;1.50;;
51824;SDS011;37879;52.986;6.282;2022-10-16T07:13:12;5.88;;;2.17;;
51824;SDS011;37879;52.986;6.282;2022-10-16T07:15:39;6.10;;;1.92;;
51824;SDS011;37879;52.986;6.282;2022-10-16T07:18:05;5.28;;;1.75;;
51824;SDS011;37879;52.986;6.282;2022-10-16T07:20:31;3.33;;;2.30;;
51824;SDS011;37879;52.986;6.282;2022-10-16T07:22:57;4.72;;;2.08;;
51824;SDS011;37879;52.986;6.282;2022-10-16T07:25:22;4.72;;;1.90;;
51824;SDS011;37879;52.986;6.282;2022-10-16T07:27:48;3.90;;;1.90;;
51824;SDS011;37879;52.986;6.282;2022-10-16T07:30:14;4.40;;;1.80;;
51824;SDS011;37879;52.986;6.282;2022-10-16T07:32:40;2.90;;;1.60;;
51824;SDS011;37879;52.986;6.282;2022-10-16T07:35:05;4.07;;;1.75;;
51824;SDS011;37879;52.986;6.282;2022-10-16T07:37:32;2.78;;;1.42;;
51824;SDS011;37879;52.986;6.282;2022-10-16T07:39:57;2.83;;;1.65;;
51824;SDS011;37879;52.986;6.282;2022-10-16T07:42:23;6.63;;;1.95;;
51824;SDS011;37879;52.986;6.282;2022-10-16T07:44:49;5.13;;;1.90;;
51824;SDS011;37879;52.986;6.282;2022-10-16T07:47:14;4.30;;;1.42;;
51824;SDS011;37879;52.986;6.282;2022-10-16T07:49:40;3.88;;;1.40;;
51824;SDS011;37879;52.986;6.282;2022-10-16T07:52:06;7.30;;;1.67;;
51824;SDS011;37879;52.986;6.282;2022-10-16T07:54:32;5.57;;;1.58;;
51824;SDS011;37879;52.986;6.282;2022-10-16T07:56:58;4.45;;;1.60;;
51824;SDS011;37879;52.986;6.282;2022-10-16T07:59:23;4.95;;;1.40;;
51824;SDS011;37879;52.986;6.282;2022-10-16T08:01:49;5.50;;;1.45;;
51824;SDS011;37879;52.986;6.282;2022-10-16T08:04:15;3.20;;;1.50;;
51824;SDS011;37879;52.986;6.282;2022-10-16T08:06:41;4.22;;;1.10;;
51824;SDS011;37879;52.986;6.282;2022-10-16T08:09:07;1.75;;;0.93;;
51824;SDS011;37879;52.986;6.282;2022-10-16T08:11:33;2.60;;;1.10;;
51824;SDS011;37879;52.986;6.282;2022-10-16T08:13:59;4.22;;;1.63;;
51824;SDS011;37879;52.986;6.282;2022-10-16T08:16:25;2.75;;;1.08;;
51824;SDS011;37879;52.986;6.282;2022-10-16T08:18:51;2.67;;;0.80;;
51824;SDS011;37879;52.986;6.282;2022-10-16T08:21:17;3.42;;;1.15;;
51824;SDS011;37879;52.986;6.282;2022-10-16T08:23:45;2.53;;;0.95;;
51824;SDS011;37879;52.986;6.282;2022-10-16T08:26:11;3.90;;;0.85;;
51824;SDS011;37879;52.986;6.282;2022-10-16T08:28:37;2.42;;;0.98;;
51824;SDS011;37879;52.986;6.282;2022-10-16T08:31:06;3.83;;;1.00;;
51824;SDS011;37879;52.986;6.282;2022-10-16T08:33:33;2.10;;;0.90;;
51824;SDS011;37879;52.986;6.282;2022-10-16T08:36:00;1.50;;;0.90;;
51824;SDS011;37879;52.986;6.282;2022-10-16T08:38:27;3.05;;;1.00;;
51824;SDS011;37879;52.986;6.282;2022-10-16T08:40:52;3.72;;;0.95;;
51824;SDS011;37879;52.986;6.282;2022-10-16T08:49:03;7.22;;;1.10;;
51824;SDS011;37879;52.986;6.282;2022-10-16T08:51:36;4.28;;;1.70;;
51824;SDS011;37879;52.986;6.282;2022-10-16T08:54:15;7.22;;;1.45;;
51824;SDS011;37879;52.986;6.282;2022-10-16T08:56:48;4.38;;;1.15;;
51824;SDS011;37879;52.986;6.282;2022-10-16T08:59:14;4.38;;;1.30;;
51824;SDS011;37879;52.986;6.282;2022-10-16T09:01:44;6.65;;;1.75;;
51824;SDS011;37879;52.986;6.282;2022-10-16T09:15:44;5.15;;;1.75;;
51824;SDS011;37879;52.986;6.282;2022-10-16T09:18:29;7.63;;;1.67;;
51824;SDS011;37879;52.986;6.282;2022-10-16T09:21:12;6.00;;;1.55;;
51824;SDS011;37879;52.986;6.282;2022-10-16T09:23:50;6.20;;;2.00;;
51824;SDS011;37879;52.986;6.282;2022-10-16T09:26:16;4.25;;;1.50;;
51824;SDS011;37879;52.986;6.282;2022-10-16T09:28:44;10.02;;;1.50;;
51824;SDS011;37879;52.986;6.282;2022-10-16T09:31:15;5.40;;;1.00;;
51824;SDS011;37879;52.986;6.282;2022-10-16T09:33:43;4.88;;;1.77;;
51824;SDS011;37879;52.986;6.282;2022-10-16T09:36:12;4.35;;;1.15;;
51824;SDS011;37879;52.986;6.282;2022-10-16T09:38:38;9.23;;;1.58;;
51824;SDS011;37879;52.986;6.282;2022-10-16T09:50:59;3.65;;;1.23;;
51824;SDS011;37879;52.986;6.282;2022-10-16T09:53:26;7.78;;;1.65;;
51824;SDS011;37879;52.986;6.282;2022-10-16T09:56:04;7.28;;;1.88;;
51824;SDS011;37879;52.986;6.282;2022-10-16T09:58:31;6.10;;;1.65;;
51824;SDS011;37879;52.986;6.282;2022-10-16T10:00:58;3.95;;;1.35;;
51824;SDS011;37879;52.986;6.282;2022-10-16T10:03:35;4.90;;;1.95;;
51824;SDS011;37879;52.986;6.282;2022-10-16T10:06:23;7.78;;;2.08;;
51824;SDS011;37879;52.986;6.282;2022-10-16T10:09:04;8.15;;;1.52;;
51824;SDS011;37879;52.986;6.282;2022-10-16T10:11:38;7.90;;;2.33;;
51824;SDS011;37879;52.986;6.282;2022-10-16T10:16:46;7.55;;;2.17;;
51824;SDS011;37879;52.986;6.282;2022-10-16T10:19:20;7.80;;;1.70;;
51824;SDS011;37879;52.986;6.282;2022-10-16T10:21:48;6.20;;;1.50;;
51824;SDS011;37879;52.986;6.282;2022-10-16T10:24:16;15.52;;;2.25;;
51824;SDS011;37879;52.986;6.282;2022-10-16T10:26:51;8.07;;;1.70;;
51824;SDS011;37879;52.986;6.282;2022-10-16T10:34:39;5.75;;;1.63;;
51824;SDS011;37879;52.986;6.282;2022-10-16T10:37:22;7.85;;;1.70;;
51824;SDS011;37879;52.986;6.282;2022-10-16T10:40:11;8.32;;;1.70;;
51824;SDS011;37879;52.986;6.282;2022-10-16T10:43:01;13.30;;;2.13;;
51824;SDS011;37879;52.986;6.282;2022-10-16T10:45:48;11.95;;;1.77;;
51824;SDS011;37879;52.986;6.282;2022-10-16T10:51:06;7.15;;;1.48;;
51824;SDS011;37879;52.986;6.282;2022-10-16T10:59:19;5.78;;;2.25;;
51824;SDS011;37879;52.986;6.282;2022-10-16T11:02:30;7.78;;;1.88;;
51824;SDS011;37879;52.986;6.282;2022-10-16T11:08:08;11.70;;;1.80;;
51824;SDS011;37879;52.986;6.282;2022-10-16T11:13:39;7.18;;;1.77;;
51824;SDS011;37879;52.986;6.282;2022-10-16T11:16:27;7.43;;;2.28;;
51824;SDS011;37879;52.986;6.282;2022-10-16T11:19:01;10.55;;;2.63;;
51824;SDS011;37879;52.986;6.282;2022-10-16T11:21:30;6.97;;;2.08;;
51824;SDS011;37879;52.986;6.282;2022-10-16T11:24:03;6.32;;;2.20;;
51824;SDS011;37879;52.986;6.282;2022-10-16T11:26:35;10.23;;;1.92;;
51824;SDS011;37879;52.986;6.282;2022-10-16T11:29:07;10.35;;;2.55;;
51824;SDS011;37879;52.986;6.282;2022-10-16T11:31:41;8.70;;;1.75;;
51824;SDS011;37879;52.986;6.282;2022-10-16T11:34:15;10.40;;;1.88;;
51824;SDS011;37879;52.986;6.282;2022-10-16T11:37:02;9.02;;;1.90;;
51824;SDS011;37879;52.986;6.282;2022-10-16T11:39:36;10.15;;;1.75;;
51824;SDS011;37879;52.986;6.282;2022-10-16T11:45:03;7.53;;;1.70;;
51824;SDS011;37879;52.986;6.282;2022-10-16T11:47:48;12.30;;;2.30;;
51824;SDS011;37879;52.986;6.282;2022-10-16T11:53:23;6.40;;;1.80;;
51824;SDS011;37879;52.986;6.282;2022-10-16T11:55:59;6.95;;;2.45;;
51824;SDS011;37879;52.986;6.282;2022-10-16T11:58:27;13.52;;;3.10;;
51824;SDS011;37879;52.986;6.282;2022-10-16T12:07:11;9.40;;;1.85;;
51824;SDS011;37879;52.986;6.282;2022-10-16T12:09:42;8.77;;;1.98;;
51824;SDS011;37879;52.986;6.282;2022-10-16T12:12:27;7.75;;;1.55;;
51824;SDS011;37879;52.986;6.282;2022-10-16T12:17:35;8.35;;;1.52;;
51824;SDS011;37879;52.986;6.282;2022-10-16T12:22:40;10.88;;;1.67;;
51824;SDS011;37879;52.986;6.282;2022-10-16T12:30:26;8.40;;;1.60;;
51824;SDS011;37879;52.986;6.282;2022-10-16T12:32:59;10.05;;;2.75;;
51824;SDS011;37879;52.986;6.282;2022-10-16T12:38:05;8.10;;;1.95;;
51824;SDS011;37879;52.986;6.282;2022-10-16T12:40:41;8.65;;;1.85;;
51824;SDS011;37879;52.986;6.282;2022-10-16T12:43:34;8.63;;;1.88;;
51824;SDS011;37879;52.986;6.282;2022-10-16T12:48:34;8.60;;;1.92;;
51824;SDS011;37879;52.986;6.282;2022-10-16T12:53:38;5.22;;;1.50;;
51824;SDS011;37879;52.986;6.282;2022-10-16T12:56:09;11.15;;;2.35;;
51824;SDS011;37879;52.986;6.282;2022-10-16T13:18:46;5.75;;;1.70;;
51824;SDS011;37879;52.986;6.282;2022-10-16T13:22:03;4.63;;;1.20;;
51824;SDS011;37879;52.986;6.282;2022-10-16T13:26:49;9.57;;;1.75;;
51824;SDS011;37879;52.986;6.282;2022-10-16T13:29:30;7.35;;;1.85;;
51824;SDS011;37879;52.986;6.282;2022-10-16T13:31:57;13.13;;;2.70;;
51824;SDS011;37879;52.986;6.282;2022-10-16T13:34:25;4.93;;;1.30;;
51824;SDS011;37879;52.986;6.282;2022-10-16T13:36:52;4.85;;;1.38;;
51824;SDS011;37879;52.986;6.282;2022-10-16T13:42:00;6.25;;;1.27;;
51824;SDS011;37879;52.986;6.282;2022-10-16T13:44:35;13.75;;;2.30;;
51824;SDS011;37879;52.986;6.282;2022-10-16T13:47:10;7.28;;;1.90;;
51824;SDS011;37879;52.986;6.282;2022-10-16T13:49:41;9.50;;;1.63;;
51824;SDS011;37879;52.986;6.282;2022-10-16T13:52:15;7.57;;;1.77;;
51824;SDS011;37879;52.986;6.282;2022-10-16T13:54:43;7.57;;;1.60;;
51824;SDS011;37879;52.986;6.282;2022-10-16T13:57:13;9.98;;;2.17;;
51824;SDS011;37879;52.986;6.282;2022-10-16T13:59:40;6.75;;;1.90;;
51824;SDS011;37879;52.986;6.282;2022-10-16T14:02:25;8.93;;;1.80;;
51824;SDS011;37879;52.986;6.282;2022-10-16T14:04:54;7.28;;;1.75;;
51824;SDS011;37879;52.986;6.282;2022-10-16T14:07:25;8.90;;;2.13;;
51824;SDS011;37879;52.986;6.282;2022-10-16T14:09:53;8.70;;;1.58;;
51824;SDS011;37879;52.986;6.282;2022-10-16T14:12:20;7.50;;;1.77;;
51824;SDS011;37879;52.986;6.282;2022-10-16T14:14:52;7.35;;;1.83;;
51824;SDS011;37879;52.986;6.282;2022-10-16T14:17:20;5.13;;;1.40;;
51824;SDS011;37879;52.986;6.282;2022-10-16T14:19:50;10.65;;;2.20;;
51824;SDS011;37879;52.986;6.282;2022-10-16T14:22:34;11.88;;;1.73;;
51824;SDS011;37879;52.986;6.282;2022-10-16T14:25:00;5.15;;;1.58;;
51824;SDS011;37879;52.986;6.282;2022-10-16T14:27:35;7.22;;;1.58;;
51824;SDS011;37879;52.986;6.282;2022-10-16T14:32:40;10.85;;;2.45;;
51824;SDS011;37879;52.986;6.282;2022-10-16T14:35:33;8.52;;;1.63;;
51824;SDS011;37879;52.986;6.282;2022-10-16T14:38:03;5.88;;;2.15;;
51824;SDS011;37879;52.986;6.282;2022-10-16T14:40:31;5.82;;;1.70;;
51824;SDS011;37879;52.986;6.282;2022-10-16T14:42:59;8.40;;;1.55;;
51824;SDS011;37879;52.986;6.282;2022-10-16T14:45:30;10.10;;;2.08;;
51824;SDS011;37879;52.986;6.282;2022-10-16T14:47:59;10.75;;;1.85;;
51824;SDS011;37879;52.986;6.282;2022-10-16T14:50:27;7.57;;;1.83;;
51824;SDS011;37879;52.986;6.282;2022-10-16T14:52:53;10.70;;;2.22;;
51824;SDS011;37879;52.986;6.282;2022-10-16T14:55:20;6.28;;;1.38;;
51824;SDS011;37879;52.986;6.282;2022-10-16T14:57:46;7.47;;;2.28;;
51824;SDS011;37879;52.986;6.282;2022-10-16T15:02:44;10.35;;;2.15;;
51824;SDS011;37879;52.986;6.282;2022-10-16T15:05:12;9.20;;;1.52;;
51824;SDS011;37879;52.986;6.282;2022-10-16T15:07:51;6.57;;;1.58;;
51824;SDS011;37879;52.986;6.282;2022-10-16T15:10:18;8.25;;;1.85;;
51824;SDS011;37879;52.986;6.282;2022-10-16T15:12:45;7.55;;;1.95;;
51824;SDS011;37879;52.986;6.282;2022-10-16T15:17:53;8.95;;;1.85;;
51824;SDS011;37879;52.986;6.282;2022-10-16T15:20:26;7.45;;;2.20;;
51824;SDS011;37879;52.986;6.282;2022-10-16T15:22:53;5.70;;;1.67;;
51824;SDS011;37879;52.986;6.282;2022-10-16T15:25:37;7.93;;;2.25;;
51824;SDS011;37879;52.986;6.282;2022-10-16T15:28:07;6.70;;;2.50;;
51824;SDS011;37879;52.986;6.282;2022-10-16T15:30:34;10.18;;;1.98;;
51824;SDS011;37879;52.986;6.282;2022-10-16T15:33:01;5.57;;;1.98;;
51824;SDS011;37879;52.986;6.282;2022-10-16T15:35:27;8.27;;;1.83;;
51824;SDS011;37879;52.986;6.282;2022-10-16T15:37:53;10.82;;;2.60;;
51824;SDS011;37879;52.986;6.282;2022-10-16T15:40:19;13.90;;;2.28;;
51824;SDS011;37879;52.986;6.282;2022-10-16T15:42:49;5.45;;;1.20;;
51824;SDS011;37879;52.986;6.282;2022-10-16T15:45:15;6.07;;;2.25;;
51824;SDS011;37879;52.986;6.282;2022-10-16T15:47:42;9.82;;;2.38;;
51824;SDS011;37879;52.986;6.282;2022-10-16T15:50:12;11.50;;;2.63;;
51824;SDS011;37879;52.986;6.282;2022-10-16T15:52:39;4.90;;;1.77;;
51824;SDS011;37879;52.986;6.282;2022-10-16T15:55:06;7.63;;;1.83;;
51824;SDS011;37879;52.986;6.282;2022-10-16T15:57:33;8.52;;;1.92;;
51824;SDS011;37879;52.986;6.282;2022-10-16T15:59:59;11.00;;;2.35;;
51824;SDS011;37879;52.986;6.282;2022-10-16T16:02:25;9.80;;;1.60;;
51824;SDS011;37879;52.986;6.282;2022-10-16T16:04:50;8.88;;;2.38;;
51824;SDS011;37879;52.986;6.282;2022-10-16T16:07:17;9.60;;;1.33;;
51824;SDS011;37879;52.986;6.282;2022-10-16T16:09:43;11.35;;;2.13;;
51824;SDS011;37879;52.986;6.282;2022-10-16T16:12:10;7.63;;;1.90;;
51824;SDS011;37879;52.986;6.282;2022-10-16T16:14:35;12.82;;;3.13;;
51824;SDS011;37879;52.986;6.282;2022-10-16T16:17:01;11.93;;;2.13;;
51824;SDS011;37879;52.986;6.282;2022-10-16T16:19:27;10.68;;;2.20;;
51824;SDS011;37879;52.986;6.282;2022-10-16T16:21:52;9.55;;;2.50;;
51824;SDS011;37879;52.986;6.282;2022-10-16T16:24:18;15.48;;;2.40;;
51824;SDS011;37879;52.986;6.282;2022-10-16T16:26:44;11.60;;;1.95;;
51824;SDS011;37879;52.986;6.282;2022-10-16T16:29:14;10.65;;;2.08;;
51824;SDS011;37879;52.986;6.282;2022-10-16T16:31:41;9.35;;;2.85;;
51824;SDS011;37879;52.986;6.282;2022-10-16T16:34:07;7.10;;;2.10;;
51824;SDS011;37879;52.986;6.282;2022-10-16T16:36:33;7.82;;;1.83;;
51824;SDS011;37879;52.986;6.282;2022-10-16T16:38:59;14.70;;;3.17;;
51824;SDS011;37879;52.986;6.282;2022-10-16T16:41:26;15.02;;;2.28;;
51824;SDS011;37879;52.986;6.282;2022-10-16T16:43:54;11.40;;;2.13;;
51824;SDS011;37879;52.986;6.282;2022-10-16T16:46:26;10.90;;;3.70;;
51824;SDS011;37879;52.986;6.282;2022-10-16T16:48:51;9.50;;;2.85;;
51824;SDS011;37879;52.986;6.282;2022-10-16T16:51:20;9.20;;;2.13;;
51824;SDS011;37879;52.986;6.282;2022-10-16T16:53:47;9.15;;;2.38;;
51824;SDS011;37879;52.986;6.282;2022-10-16T16:56:14;9.60;;;1.77;;
51824;SDS011;37879;52.986;6.282;2022-10-16T16:58:40;8.13;;;2.30;;
51824;SDS011;37879;52.986;6.282;2022-10-16T17:01:06;7.80;;;1.92;;
51824;SDS011;37879;52.986;6.282;2022-10-16T17:03:34;14.43;;;2.03;;
51824;SDS011;37879;52.986;6.282;2022-10-16T17:06:05;5.70;;;2.15;;
51824;SDS011;37879;52.986;6.282;2022-10-16T17:08:36;18.13;;;4.30;;
51824;SDS011;37879;52.986;6.282;2022-10-16T17:11:03;16.35;;;4.10;;